createdAt,value
2023-01-30T00:02:11.295Z,9.20
2023-01-30T00:04:41.840Z,9.30
2023-01-30T00:07:10.247Z,10.30
2023-01-30T00:09:44.182Z,9.90
2023-01-30T00:12:15.384Z,8.90
2023-01-30T00:14:43.635Z,10.20
2023-01-30T00:17:11.712Z,9.40
2023-01-30T00:19:40.511Z,11.00
2023-01-30T00:22:08.884Z,7.60
2023-01-30T00:24:45.552Z,10.20
2023-01-30T00:27:14.879Z,9.50
2023-01-30T00:29:45.688Z,8.40
2023-01-30T00:32:17.564Z,9.40
2023-01-30T00:34:45.999Z,9.10
2023-01-30T00:37:15.940Z,8.10
2023-01-30T00:39:44.129Z,9.80
2023-01-30T00:42:31.185Z,9.20
2023-01-30T00:45:18.434Z,9.80
2023-01-30T00:47:48.937Z,9.00
2023-01-30T00:50:17.150Z,8.80
2023-01-30T00:52:45.266Z,10.00
2023-01-30T00:55:13.632Z,7.80
2023-01-30T00:57:42.195Z,8.90
2023-01-30T01:00:11.969Z,8.30
2023-01-30T01:02:42.480Z,8.60
2023-01-30T01:05:10.882Z,8.60
2023-01-30T01:07:39.927Z,7.50
2023-01-30T01:10:16.574Z,8.60
2023-01-30T01:12:45.583Z,8.70
2023-01-30T01:15:13.993Z,10.50
2023-01-30T01:17:42.841Z,8.40
2023-01-30T01:20:13.255Z,10.00
2023-01-30T01:22:41.943Z,11.20
2023-01-30T01:25:10.800Z,11.00
2023-01-30T01:27:40.682Z,11.30
2023-01-30T01:30:11.118Z,10.50
2023-01-30T01:32:39.567Z,11.80
2023-01-30T01:35:10.673Z,8.70
2023-01-30T01:37:39.386Z,10.20
2023-01-30T01:40:31.815Z,9.00
2023-01-30T01:43:00.821Z,9.20
2023-01-30T01:45:29.612Z,9.40
2023-01-30T01:48:25.175Z,8.00
2023-01-30T01:51:09.829Z,9.70
2023-01-30T01:53:54.797Z,8.40
2023-01-30T01:56:23.133Z,7.80
2023-01-30T01:58:55.144Z,8.00
2023-01-30T02:01:24.081Z,8.10
2023-01-30T02:03:56.265Z,7.70
2023-01-30T02:06:24.427Z,8.20
2023-01-30T02:08:55.719Z,7.00
2023-01-30T02:11:32.553Z,7.10
2023-01-30T02:14:00.917Z,7.90
2023-01-30T02:16:29.072Z,7.50
2023-01-30T02:18:57.245Z,7.80
2023-01-30T02:22:13.409Z,7.60
2023-01-30T02:24:51.871Z,6.70
2023-01-30T02:27:47.915Z,7.00
2023-01-30T02:30:45.279Z,7.30
2023-01-30T02:33:13.655Z,7.20
2023-01-30T02:36:00.317Z,7.30
2023-01-30T02:38:28.357Z,7.60
2023-01-30T02:41:25.950Z,6.80
2023-01-30T02:44:05.227Z,7.50
2023-01-30T02:46:35.845Z,7.00
2023-01-30T02:49:25.366Z,6.60
2023-01-30T02:51:53.535Z,6.60
2023-01-30T02:54:22.313Z,6.70
2023-01-30T02:56:55.121Z,7.40
2023-01-30T02:59:40.159Z,7.40
2023-01-30T03:02:33.059Z,6.70
2023-01-30T03:05:39.087Z,7.40
2023-01-30T03:08:35.263Z,8.70
2023-01-30T03:11:06.057Z,8.50
2023-01-30T03:13:55.372Z,7.60
2023-01-30T03:16:27.384Z,8.40
2023-01-30T03:18:55.979Z,7.70
2023-01-30T03:21:24.131Z,7.30
2023-01-30T03:23:53.523Z,7.90
2023-01-30T03:26:26.548Z,7.40
2023-01-30T03:28:54.840Z,10.70
2023-01-30T03:31:23.102Z,10.70
2023-01-30T03:33:51.402Z,10.10
2023-01-30T03:36:19.635Z,9.80
2023-01-30T03:38:48.006Z,10.20
2023-01-30T03:41:16.601Z,8.60
2023-01-30T03:43:44.836Z,8.00
2023-01-30T03:46:14.479Z,8.10
2023-01-30T09:52:46.229Z,10.70
2023-01-30T09:55:22.661Z,9.30
2023-01-30T09:57:51.171Z,10.10
2023-01-30T10:00:36.667Z,10.10
2023-01-30T10:03:16.351Z,11.00
2023-01-30T10:06:11.403Z,10.40
2023-01-30T10:09:20.327Z,9.20
2023-01-30T10:11:57.720Z,10.20
2023-01-30T10:14:52.144Z,9.90
2023-01-30T11:24:16.720Z,9.90
2023-01-30T11:26:47.876Z,9.90
2023-01-30T11:29:24.383Z,10.70
2023-01-30T11:34:19.696Z,8.60
2023-01-30T11:36:47.477Z,9.70
2023-01-30T11:39:18.247Z,9.60
2023-01-30T11:41:54.959Z,9.80
2023-01-30T11:44:44.333Z,7.60
2023-01-30T11:47:21.765Z,9.40
2023-01-30T15:52:49.838Z,10.00
2023-01-30T15:55:21.499Z,10.90
2023-01-30T15:57:52.244Z,11.10
2023-01-30T16:00:29.252Z,9.80
2023-01-30T16:02:57.780Z,11.50
2023-01-30T16:05:26.398Z,11.30
2023-01-30T16:07:58.245Z,9.50
2023-01-30T16:10:29.751Z,10.50
2023-01-30T16:12:58.410Z,9.50
2023-01-30T16:15:34.291Z,10.50
2023-01-30T16:18:28.113Z,9.70
2023-01-30T16:21:10.461Z,9.70
2023-01-30T16:24:18.470Z,9.90
2023-01-30T16:27:00.731Z,11.10
2023-01-30T16:29:31.789Z,10.50
2023-01-30T16:32:00.150Z,12.10
2023-01-30T16:34:34.695Z,10.40
2023-01-30T16:37:23.055Z,10.80
2023-01-30T16:40:13.961Z,9.60
2023-01-30T16:42:42.436Z,11.50
2023-01-30T16:45:16.213Z,14.30
2023-01-30T16:47:44.527Z,11.80
2023-01-30T16:50:22.947Z,11.00
2023-01-30T16:52:52.664Z,11.70
2023-01-30T16:55:22.456Z,13.00
2023-01-30T16:57:55.264Z,10.00
2023-01-30T17:00:38.483Z,10.50
2023-01-30T17:03:09.030Z,9.20
2023-01-30T17:05:39.730Z,11.30
2023-01-30T17:08:33.040Z,11.60
2023-01-30T17:11:04.637Z,11.70
2023-01-30T17:13:43.458Z,11.80
2023-01-30T17:16:23.746Z,10.40
2023-01-30T17:18:53.838Z,11.10
2023-01-30T17:21:23.372Z,9.80
2023-01-30T17:23:58.352Z,13.30
2023-01-30T17:26:26.668Z,11.20
2023-01-30T17:28:54.861Z,13.00
2023-01-30T17:31:23.203Z,14.00
2023-01-30T17:33:52.375Z,13.40
2023-01-30T17:36:24.109Z,13.00
2023-01-30T17:38:52.616Z,13.40
2023-01-30T17:41:24.316Z,13.90
2023-01-30T17:43:52.529Z,16.80
2023-01-30T17:46:23.518Z,14.20
2023-01-30T17:48:51.986Z,13.20
2023-01-30T17:51:20.307Z,14.90
2023-01-30T17:53:48.444Z,14.00
2023-01-30T17:56:38.398Z,13.90
2023-01-30T17:59:17.235Z,12.30
2023-01-30T18:01:47.401Z,13.10
2023-01-30T18:04:15.754Z,11.70
2023-01-30T18:06:44.906Z,12.40
2023-01-30T18:09:18.256Z,14.90
2023-01-30T18:11:47.154Z,16.80
2023-01-30T18:14:15.567Z,13.60
2023-01-30T18:16:44.149Z,14.80
2023-01-30T18:19:13.624Z,17.00
2023-01-30T18:21:45.296Z,13.70
2023-01-30T18:24:17.087Z,16.20
2023-01-30T18:26:46.240Z,12.40
2023-01-30T18:29:14.452Z,15.00
2023-01-30T18:31:42.798Z,16.60
2023-01-30T18:34:11.958Z,11.90
2023-01-30T18:36:40.281Z,12.00
2023-01-30T18:39:11.899Z,13.10
2023-01-30T18:41:40.263Z,13.50
2023-01-30T18:44:10.143Z,11.70
2023-01-30T18:46:38.330Z,12.40
2023-01-30T18:49:08.498Z,14.70
2023-01-30T18:51:36.903Z,13.30
2023-01-30T18:54:05.032Z,13.70
2023-01-30T18:56:34.413Z,13.40
2023-01-30T18:59:04.353Z,15.00
2023-01-30T19:01:42.654Z,12.50
2023-01-30T19:04:11.591Z,13.40
2023-01-30T19:06:42.224Z,12.20
2023-01-30T19:09:17.570Z,12.70
2023-01-30T19:12:04.181Z,13.60
2023-01-30T19:14:32.723Z,15.50
2023-01-30T19:17:01.571Z,12.40
2023-01-30T19:19:30.099Z,15.10
2023-01-30T19:21:58.365Z,13.60
2023-01-30T19:24:27.187Z,12.20
2023-01-30T19:26:55.405Z,12.70
2023-01-30T19:29:23.906Z,11.90
2023-01-30T19:31:52.135Z,13.50
2023-01-30T19:34:21.380Z,14.80
2023-01-30T19:36:49.955Z,13.70
2023-01-30T19:39:18.618Z,13.20
2023-01-30T19:41:46.837Z,15.00
2023-01-30T19:44:14.968Z,15.40
2023-01-30T22:19:48.042Z,24.60
2023-01-30T22:22:16.864Z,24.00
2023-01-30T22:24:45.055Z,26.60
2023-01-30T22:27:13.233Z,25.60
2023-01-30T22:29:41.505Z,26.60
2023-01-30T22:32:10.778Z,25.20
2023-01-30T22:34:39.344Z,25.20
2023-01-30T22:37:07.872Z,23.80
2023-01-30T22:39:36.348Z,27.40
2023-01-30T22:42:04.642Z,27.60
2023-01-30T22:44:32.900Z,26.00
2023-01-30T22:47:01.257Z,26.90
2023-01-30T22:49:29.556Z,26.30
2023-01-30T22:51:57.804Z,25.60
2023-01-30T22:54:26.122Z,25.80
2023-01-30T22:56:54.560Z,27.10
2023-01-30T22:59:23.091Z,22.60
2023-01-30T23:01:51.474Z,24.60
2023-01-30T23:04:21.903Z,26.00
2023-01-30T23:06:51.604Z,24.30
2023-01-30T23:09:22.559Z,23.00
2023-01-30T23:12:18.810Z,24.60
2023-01-30T23:14:46.960Z,25.70
2023-01-30T23:17:33.563Z,26.00
2023-01-30T23:20:01.737Z,23.20
2023-01-30T23:22:30.054Z,24.50
2023-01-30T23:24:58.284Z,29.20
2023-01-30T23:27:26.972Z,26.90
2023-01-30T23:29:55.103Z,22.80
2023-01-30T23:32:24.009Z,30.10
2023-01-30T23:34:52.259Z,26.60
2023-01-30T23:37:40.354Z,25.00
2023-01-30T23:40:11.320Z,23.80
2023-01-30T23:42:40.245Z,27.90
2023-01-30T23:45:09.237Z,24.80
2023-01-30T23:47:37.886Z,24.80
2023-01-30T23:50:06.408Z,24.80
2023-01-30T23:52:35.058Z,24.50
2023-01-30T23:55:04.081Z,23.00
2023-01-30T23:57:33.722Z,24.30
